Time;durP1;ratioP1;P1;durP2;ratioP2;P2;SDS_P1;SDS_P2;PMS_P1;PMS_P2;Temp;Humidity;BMP_temperature;BMP_pressure;BME280_temperature;BME280_humidity;BME280_pressure;Samples;Min_cycle;Max_cycle;Signal;HPM_P1;HPM_P2
2022/11/03 00:03:04;;;;;;;18.40;16.52;;;;;;;;;;10144504;28;20131;-69
2022/11/03 00:08:02;;;;;;;18.13;16.33;;;;;;;;;;10140836;28;20070;-68
2022/11/03 00:12:58;;;;;;;17.13;15.50;;;;;;;;;;10151219;28;20564;-68
2022/11/03 00:17:54;;;;;;;18.75;17.27;;;;;;;;;;10151137;28;20047;-68
2022/11/03 00:22:50;;;;;;;18.83;17.02;;;;;;;;;;10145714;28;20050;-68
2022/11/03 00:27:52;;;;;;;18.48;17.02;;;;;;;;;;10145856;28;20042;-68
2022/11/03 00:32:48;;;;;;;18.43;16.77;;;;;;;;;;10156348;28;20141;-67
2022/11/03 00:37:45;;;;;;;20.55;18.45;;;;;;;;;;10142396;28;20050;-67
2022/11/03 00:42:41;;;;;;;20.48;18.52;;;;;;;;;;10149878;28;20046;-67
2022/11/03 00:48:28;;;;;;;21.02;18.83;;;;;;;;;;10146152;28;20049;-67
2022/11/03 00:52:53;;;;;;;20.05;18.55;;;;;;;;;;10151817;28;20613;-68
2022/11/03 00:57:51;;;;;;;22.35;20.38;;;;;;;;;;10142828;28;20046;-68
2022/11/03 01:02:48;;;;;;;20.35;18.58;;;;;;;;;;10149039;28;20042;-68
2022/11/03 01:07:44;;;;;;;20.67;18.67;;;;;;;;;;10143420;28;20050;-67
2022/11/03 01:12:40;;;;;;;18.73;17.15;;;;;;;;;;10147256;28;20046;-68
2022/11/03 01:17:38;;;;;;;20.45;18.70;;;;;;;;;;10144322;28;20046;-67
2022/11/03 01:22:34;;;;;;;19.77;18.15;;;;;;;;;;10147927;28;20042;-69
2022/11/03 01:27:33;;;;;;;21.17;19.35;;;;;;;;;;10145033;28;20046;-68
2022/11/03 01:32:29;;;;;;;20.50;18.48;;;;;;;;;;10146582;28;20042;-68
2022/11/03 01:37:25;;;;;;;19.52;17.83;;;;;;;;;;10143848;28;20046;-69
2022/11/03 01:42:22;;;;;;;18.55;16.70;;;;;;;;;;10145029;28;20050;-68
2022/11/03 01:47:21;;;;;;;19.25;17.40;;;;;;;;;;10137475;28;20069;-68
2022/11/03 01:52:17;;;;;;;19.02;17.50;;;;;;;;;;10151607;28;20053;-69
2022/11/03 01:57:15;;;;;;;21.38;19.27;;;;;;;;;;10140066;28;20505;-68
2022/11/03 02:02:12;;;;;;;19.23;17.50;;;;;;;;;;10129098;28;20659;-68
2022/11/03 02:07:21;;;;;;;16.73;15.25;;;;;;;;;;10137713;28;20556;-68
2022/11/03 02:12:19;;;;;;;16.73;15.15;;;;;;;;;;10145931;28;20046;-68
2022/11/03 02:17:17;;;;;;;14.27;13.23;;;;;;;;;;10131140;28;20046;-68
2022/11/03 02:22:31;;;;;;;15.88;14.15;;;;;;;;;;10139600;28;20045;-68
2022/11/03 02:27:28;;;;;;;14.10;12.93;;;;;;;;;;10132679;28;20689;-68
2022/11/03 02:32:27;;;;;;;16.17;14.68;;;;;;;;;;10126015;28;20046;-68
2022/11/03 02:37:27;;;;;;;15.50;14.10;;;;;;;;;;10134116;28;20051;-68
2022/11/03 02:42:23;;;;;;;16.02;14.48;;;;;;;;;;10144542;28;20042;-68
2022/11/03 02:47:20;;;;;;;16.10;14.70;;;;;;;;;;10135592;28;20051;-68
2022/11/03 02:52:52;;;;;;;16.27;14.85;;;;;;;;;;10139107;28;20045;-68
2022/11/03 02:57:52;;;;;;;16.17;14.57;;;;;;;;;;10054819;28;20054;-69
2022/11/03 03:02:51;;;;;;;16.60;15.00;;;;;;;;;;10119706;28;20498;-69
2022/11/03 03:07:50;;;;;;;16.25;14.63;;;;;;;;;;10132169;28;20046;-67
2022/11/03 03:12:47;;;;;;;15.80;14.32;;;;;;;;;;10141067;28;20414;-67
2022/11/03 03:17:49;;;;;;;15.38;13.80;;;;;;;;;;10137706;28;20046;-68
2022/11/03 03:22:49;;;;;;;15.95;14.52;;;;;;;;;;10132680;28;20052;-68
2022/11/03 03:27:47;;;;;;;16.15;14.48;;;;;;;;;;10146832;28;20046;-68
2022/11/03 03:32:45;;;;;;;14.88;13.45;;;;;;;;;;10143552;28;20061;-68
2022/11/03 03:37:43;;;;;;;16.90;15.32;;;;;;;;;;10138229;28;20042;-68
2022/11/03 03:42:42;;;;;;;15.80;14.18;;;;;;;;;;10148805;28;20514;-68
2022/11/03 03:47:39;;;;;;;17.05;15.52;;;;;;;;;;10129059;28;20108;-69
2022/11/03 03:52:36;;;;;;;17.58;15.82;;;;;;;;;;10140262;28;20089;-69
2022/11/03 03:57:32;;;;;;;16.52;15.20;;;;;;;;;;10143886;28;20418;-69
2022/11/03 04:02:28;;;;;;;17.48;15.82;;;;;;;;;;10136127;28;20038;-69
2022/11/03 04:23:13;;;;;;;18.73;16.98;;;;;;;;;;10134829;28;20058;-69
2022/11/03 04:28:11;;;;;;;18.80;17.38;;;;;;;;;;10141557;28;20053;-69
2022/11/03 04:33:15;;;;;;;18.70;17.17;;;;;;;;;;10127931;28;20050;-68
2022/11/03 04:38:11;;;;;;;19.63;18.17;;;;;;;;;;10136288;28;20089;-68
2022/11/03 04:43:14;;;;;;;19.33;17.60;;;;;;;;;;10130347;28;20043;-68
2022/11/03 04:48:31;;;;;;;18.55;16.73;;;;;;;;;;10130511;28;20043;-69
2022/11/03 04:53:29;;;;;;;21.75;19.60;;;;;;;;;;10131133;28;20711;-69
2022/11/03 04:58:27;;;;;;;29.35;19.13;;;;;;;;;;10127950;28;20034;-69
2022/11/03 05:03:28;;;;;;;21.90;19.67;;;;;;;;;;10134162;28;20049;-68
2022/11/03 05:08:24;;;;;;;20.60;18.88;;;;;;;;;;10148464;28;20046;-69
2022/11/03 05:13:22;;;;;;;21.48;19.65;;;;;;;;;;10147004;28;20705;-69
2022/11/03 05:18:21;;;;;;;22.52;20.55;;;;;;;;;;10130065;28;20676;-70
2022/11/03 05:23:18;;;;;;;23.35;21.33;;;;;;;;;;10129899;28;20039;-70
2022/11/03 05:28:19;;;;;;;24.92;22.83;;;;;;;;;;10124385;28;20051;-69
2022/11/03 05:33:18;;;;;;;23.70;22.00;;;;;;;;;;10132901;28;20700;-69
2022/11/03 05:38:15;;;;;;;25.70;23.83;;;;;;;;;;10127052;28;20069;-69
2022/11/03 05:43:13;;;;;;;23.38;21.73;;;;;;;;;;10118198;28;20664;-69
2022/11/03 05:48:16;;;;;;;26.30;24.25;;;;;;;;;;10134115;28;20051;-69
2022/11/03 05:53:15;;;;;;;26.13;24.23;;;;;;;;;;10133595;28;20046;-67
2022/11/03 05:58:30;;;;;;;27.25;25.00;;;;;;;;;;10147497;28;20057;-68
2022/11/03 06:03:27;;;;;;;26.52;24.55;;;;;;;;;;10133421;28;20054;-68
2022/11/03 06:08:32;;;;;;;27.88;25.52;;;;;;;;;;10119490;28;20506;-68
2022/11/03 06:13:30;;;;;;;28.73;25.95;;;;;;;;;;10125292;28;20042;-68
2022/11/03 06:18:29;;;;;;;31.05;28.63;;;;;;;;;;10126894;28;20051;-69
2022/11/03 06:23:26;;;;;;;30.60;27.80;;;;;;;;;;10130760;28;20039;-69
2022/11/03 06:28:28;;;;;;;30.85;28.55;;;;;;;;;;10135796;28;20051;-68
2022/11/03 06:33:25;;;;;;;29.40;27.15;;;;;;;;;;10140768;28;20135;-68
2022/11/03 06:38:23;;;;;;;31.73;29.63;;;;;;;;;;10121359;28;20042;-68
2022/11/03 06:43:27;;;;;;;30.98;28.67;;;;;;;;;;10124288;28;20042;-70
2022/11/03 06:48:25;;;;;;;32.47;30.13;;;;;;;;;;10125672;28;20046;-70
2022/11/03 06:53:26;;;;;;;32.10;29.90;;;;;;;;;;10124504;28;20423;-70
2022/11/03 06:58:22;;;;;;;31.83;29.67;;;;;;;;;;10127532;28;20054;-70
2022/11/03 07:03:26;;;;;;;32.38;30.15;;;;;;;;;;10134435;28;20046;-70
2022/11/03 07:08:27;;;;;;;31.27;28.63;;;;;;;;;;10137089;28;20077;-69
2022/11/03 07:13:24;;;;;;;29.40;27.40;;;;;;;;;;10131467;28;20046;-71
2022/11/03 07:18:30;;;;;;;29.45;27.17;;;;;;;;;;10124297;28;20042;-69
2022/11/03 07:23:28;;;;;;;32.03;29.55;;;;;;;;;;10122371;28;20046;-70
2022/11/03 07:28:28;;;;;;;28.60;26.30;;;;;;;;;;10127527;28;20059;-70
2022/11/03 07:33:26;;;;;;;26.10;23.88;;;;;;;;;;10120898;28;20047;-70
2022/11/03 07:38:23;;;;;;;29.10;26.80;;;;;;;;;;10125153;28;20038;-70
2022/11/03 07:43:30;;;;;;;28.38;26.00;;;;;;;;;;10121279;28;20041;-70
2022/11/03 07:48:26;;;;;;;27.50;25.42;;;;;;;;;;10124117;28;20042;-70
2022/11/03 07:53:23;;;;;;;25.58;23.58;;;;;;;;;;10130066;28;20061;-70
2022/11/03 07:58:31;;;;;;;26.33;24.13;;;;;;;;;;10124365;28;20042;-70
2022/11/03 08:03:41;;;;;;;25.38;23.27;;;;;;;;;;10136623;28;20046;-70
2022/11/03 08:08:37;;;;;;;28.05;25.27;;;;;;;;;;10133555;28;20065;-70
2022/11/03 08:13:33;;;;;;;25.48;23.50;;;;;;;;;;10123221;28;20050;-70
2022/11/03 08:18:30;;;;;;;27.30;25.00;;;;;;;;;;10124047;28;20053;-69
2022/11/03 08:23:26;;;;;;;26.00;23.90;;;;;;;;;;10125650;28;20051;-70
2022/11/03 08:28:23;;;;;;;25.42;23.35;;;;;;;;;;10123558;28;20721;-70
2022/11/03 08:33:19;;;;;;;26.75;24.35;;;;;;;;;;10120499;28;20053;-70
2022/11/03 08:38:16;;;;;;;24.83;22.77;;;;;;;;;;10121281;28;20046;-70
2022/11/03 08:43:12;;;;;;;24.17;21.73;;;;;;;;;;10119327;28;20057;-70
2022/11/03 08:48:08;;;;;;;22.90;21.00;;;;;;;;;;10119574;28;20056;-70
2022/11/03 08:53:05;;;;;;;22.88;20.60;;;;;;;;;;10125888;28;20050;-70
2022/11/03 08:58:01;;;;;;;21.58;19.80;;;;;;;;;;10135450;28;20038;-70
2022/11/03 09:02:57;;;;;;;23.83;21.33;;;;;;;;;;10126386;28;20039;-70
2022/11/03 09:07:53;;;;;;;18.95;17.38;;;;;;;;;;10121468;28;20422;-70
2022/11/03 09:13:10;;;;;;;21.75;18.30;;;;;;;;;;10131200;28;20047;-69
2022/11/03 09:18:06;;;;;;;18.23;16.48;;;;;;;;;;10140038;28;20056;-70
2022/11/03 09:23:03;;;;;;;17.25;15.85;;;;;;;;;;10136223;28;20045;-70
2022/11/03 09:27:59;;;;;;;17.35;15.50;;;;;;;;;;10131448;28;20513;-70
2022/11/03 09:32:56;;;;;;;17.05;15.48;;;;;;;;;;10128126;28;20093;-70
2022/11/03 09:37:52;;;;;;;17.20;15.52;;;;;;;;;;10140508;28;20557;-70
2022/11/03 09:42:48;;;;;;;17.58;15.73;;;;;;;;;;10147007;28;20425;-70
2022/11/03 09:47:46;;;;;;;15.82;14.55;;;;;;;;;;10152413;28;20931;-70
2022/11/03 09:52:42;;;;;;;16.45;14.73;;;;;;;;;;10140698;28;20054;-70
2022/11/03 09:57:45;;;;;;;15.90;14.25;;;;;;;;;;10147764;28;20489;-70
2022/11/03 10:02:42;;;;;;;16.40;13.10;;;;;;;;;;10145085;28;20045;-69
2022/11/03 10:07:38;;;;;;;15.13;13.90;;;;;;;;;;10138610;28;20054;-68
2022/11/03 10:12:35;;;;;;;15.73;13.27;;;;;;;;;;10140394;28;20263;-68
2022/11/03 10:17:31;;;;;;;14.90;12.88;;;;;;;;;;10151013;28;20050;-70
2022/11/03 10:22:28;;;;;;;17.38;12.35;;;;;;;;;;10126773;28;20057;-70
2022/11/03 10:27:24;;;;;;;16.42;13.50;;;;;;;;;;10125066;28;20064;-70
2022/11/03 10:32:28;;;;;;;14.02;12.68;;;;;;;;;;10138922;28;20047;-70
2022/11/03 10:37:25;;;;;;;14.63;13.13;;;;;;;;;;10133444;28;20053;-70
2022/11/03 10:42:21;;;;;;;14.48;12.35;;;;;;;;;;10124000;28;20054;-70
2022/11/03 10:47:22;;;;;;;13.75;12.52;;;;;;;;;;10130051;28;20049;-70
2022/11/03 10:52:19;;;;;;;14.70;13.38;;;;;;;;;;10134439;28;20774;-70
2022/11/03 10:57:15;;;;;;;13.68;12.27;;;;;;;;;;10137896;28;20112;-70
2022/11/03 11:02:23;;;;;;;16.13;13.10;;;;;;;;;;10133054;28;20051;-70
2022/11/03 11:07:23;;;;;;;13.73;11.63;;;;;;;;;;10135803;28;20069;-69
2022/11/03 11:12:23;;;;;;;12.00;10.90;;;;;;;;;;10133101;28;20042;-69
2022/11/03 11:17:46;;;;;;;17.33;11.60;;;;;;;;;;10119846;28;20057;-70
2022/11/03 11:22:42;;;;;;;11.52;10.43;;;;;;;;;;10131918;28;20054;-69
2022/11/03 11:27:38;;;;;;;12.38;10.43;;;;;;;;;;10140880;28;20054;-70
2022/11/03 11:32:38;;;;;;;12.40;10.77;;;;;;;;;;10136702;28;20722;-70
2022/11/03 11:37:35;;;;;;;11.43;10.02;;;;;;;;;;10147610;28;20049;-69
2022/11/03 11:42:31;;;;;;;12.48;9.95;;;;;;;;;;10142688;28;20689;-70
2022/11/03 11:47:39;;;;;;;11.68;10.57;;;;;;;;;;10132921;28;20980;-72
2022/11/03 11:52:40;;;;;;;11.90;10.70;;;;;;;;;;10147120;28;20108;-72
2022/11/03 11:57:37;;;;;;;11.63;10.63;;;;;;;;;;10124014;28;20544;-72
2022/11/03 12:02:34;;;;;;;15.77;12.27;;;;;;;;;;10128647;28;20105;-72
2022/11/03 12:07:32;;;;;;;11.52;10.32;;;;;;;;;;10127062;28;20048;-71
2022/11/03 12:12:32;;;;;;;11.38;10.02;;;;;;;;;;10137899;28;20052;-72
2022/11/03 12:17:28;;;;;;;14.30;9.60;;;;;;;;;;10135137;28;20038;-72
2022/11/03 12:22:27;;;;;;;12.48;10.48;;;;;;;;;;10146453;28;20046;-72
2022/11/03 12:27:24;;;;;;;10.30;9.18;;;;;;;;;;10144955;28;20049;-71
2022/11/03 12:32:20;;;;;;;9.68;8.60;;;;;;;;;;10151324;28;20046;-71
2022/11/03 12:37:29;;;;;;;12.45;9.60;;;;;;;;;;10146050;28;20603;-71
2022/11/03 12:42:26;;;;;;;11.93;9.70;;;;;;;;;;10151693;28;20047;-72
2022/11/03 12:47:22;;;;;;;10.65;8.98;;;;;;;;;;10133365;28;20553;-72
2022/11/03 12:52:18;;;;;;;12.15;7.90;;;;;;;;;;10132843;28;20418;-71
2022/11/03 12:57:15;;;;;;;10.35;9.32;;;;;;;;;;10130216;28;20046;-71
2022/11/03 13:02:11;;;;;;;12.00;9.30;;;;;;;;;;10134603;28;20043;-72
2022/11/03 13:07:08;;;;;;;11.98;9.70;;;;;;;;;;10130937;28;20597;-71
2022/11/03 13:17:19;;;;;;;10.23;9.32;;;;;;;;;;10141598;28;20066;-71
2022/11/03 13:22:15;;;;;;;16.45;8.85;;;;;;;;;;10135603;28;20054;-72
2022/11/03 13:27:12;;;;;;;14.55;9.73;;;;;;;;;;10135398;28;20057;-72
2022/11/03 13:32:08;;;;;;;14.15;9.05;;;;;;;;;;10137016;28;20046;-72
2022/11/03 13:37:04;;;;;;;13.18;9.80;;;;;;;;;;10123594;28;20084;-73
2022/11/03 13:42:01;;;;;;;11.15;9.98;;;;;;;;;;10128098;28;20681;-72
2022/11/03 13:46:57;;;;;;;11.00;9.88;;;;;;;;;;10138965;28;20047;-72
2022/11/03 13:51:54;;;;;;;11.80;9.43;;;;;;;;;;10144990;28;20069;-72
2022/11/03 13:56:50;;;;;;;13.02;9.60;;;;;;;;;;10131470;28;20053;-71
2022/11/03 14:02:06;;;;;;;14.95;11.40;;;;;;;;;;10130352;28;20050;-72
2022/11/03 14:07:23;;;;;;;11.82;10.70;;;;;;;;;;10130489;28;20121;-72
2022/11/03 14:12:31;;;;;;;12.05;10.95;;;;;;;;;;10133106;28;20049;-72
2022/11/03 14:17:28;;;;;;;14.70;12.50;;;;;;;;;;10139995;28;20052;-72
2022/11/03 14:22:24;;;;;;;14.30;12.68;;;;;;;;;;10132959;28;20057;-72
2022/11/03 14:27:20;;;;;;;15.48;13.43;;;;;;;;;;10123530;28;20511;-73
2022/11/03 14:32:17;;;;;;;14.35;13.13;;;;;;;;;;10119573;28;20132;-73
2022/11/03 14:37:13;;;;;;;14.63;13.18;;;;;;;;;;10122234;28;20049;-73
2022/11/03 14:42:15;;;;;;;15.70;14.20;;;;;;;;;;10150911;28;20110;-72
2022/11/03 14:47:20;;;;;;;17.80;15.98;;;;;;;;;;10127728;28;20042;-72
2022/11/03 14:52:16;;;;;;;18.00;15.93;;;;;;;;;;10123578;28;20043;-72
2022/11/03 14:57:13;;;;;;;16.17;14.82;;;;;;;;;;10115090;28;20046;-72
2022/11/03 15:02:09;;;;;;;17.58;15.77;;;;;;;;;;10146793;28;20039;-73
2022/11/03 15:07:05;;;;;;;17.45;15.85;;;;;;;;;;10123002;28;20050;-73
2022/11/03 15:12:02;;;;;;;16.88;15.48;;;;;;;;;;10139999;28;20043;-73
2022/11/03 15:16:58;;;;;;;17.77;16.35;;;;;;;;;;10118572;28;20046;-73
2022/11/03 15:21:54;;;;;;;16.95;15.50;;;;;;;;;;10132486;28;20054;-73
2022/11/03 15:26:50;;;;;;;17.70;15.95;;;;;;;;;;10125127;28;20046;-73
2022/11/03 15:31:47;;;;;;;18.88;17.13;;;;;;;;;;10120982;28;20511;-72
2022/11/03 15:36:44;;;;;;;19.73;17.65;;;;;;;;;;10119411;28;20169;-69
2022/11/03 15:41:40;;;;;;;19.63;17.85;;;;;;;;;;10122319;28;20534;-73
2022/11/03 15:46:36;;;;;;;19.83;18.08;;;;;;;;;;10117341;28;20046;-72
2022/11/03 15:51:33;;;;;;;20.83;19.08;;;;;;;;;;10126659;28;20046;-73
2022/11/03 15:56:29;;;;;;;21.40;19.63;;;;;;;;;;10129900;28;20050;-72
2022/11/03 16:01:25;;;;;;;19.83;18.02;;;;;;;;;;10138364;28;20046;-72
2022/11/03 16:06:21;;;;;;;20.23;18.48;;;;;;;;;;10125547;28;20143;-73
2022/11/03 16:11:38;;;;;;;20.33;18.42;;;;;;;;;;10148248;28;20058;-72
2022/11/03 16:16:34;;;;;;;20.48;18.73;;;;;;;;;;10143618;28;20068;-72
2022/11/03 16:21:30;;;;;;;21.33;19.55;;;;;;;;;;10144257;28;20466;-73
2022/11/03 16:26:26;;;;;;;21.55;19.80;;;;;;;;;;10132194;28;20047;-72
2022/11/03 16:31:23;;;;;;;20.92;19.33;;;;;;;;;;10140652;28;20046;-73
2022/11/03 16:36:19;;;;;;;20.38;19.05;;;;;;;;;;10140333;28;20042;-73
2022/11/03 16:41:15;;;;;;;20.38;18.92;;;;;;;;;;10135433;28;20050;-72
2022/11/03 16:46:11;;;;;;;21.60;19.60;;;;;;;;;;10133827;28;20046;-73
2022/11/03 16:51:08;;;;;;;19.85;18.48;;;;;;;;;;10140948;28;20046;-72
2022/11/03 16:56:04;;;;;;;20.80;18.77;;;;;;;;;;10141322;28;20051;-72
2022/11/03 17:01:00;;;;;;;20.77;18.98;;;;;;;;;;10138901;28;21547;-72
2022/11/03 17:05:57;;;;;;;21.48;19.83;;;;;;;;;;10125898;28;20043;-72
2022/11/03 17:10:53;;;;;;;20.88;19.25;;;;;;;;;;10136832;28;20078;-73
2022/11/03 17:15:50;;;;;;;21.02;18.95;;;;;;;;;;10149943;28;20061;-72
2022/11/03 17:20:46;;;;;;;21.13;19.30;;;;;;;;;;10136708;28;20057;-73
2022/11/03 17:25:42;;;;;;;21.48;19.67;;;;;;;;;;10136668;28;20043;-72
2022/11/03 17:30:39;;;;;;;20.67;18.83;;;;;;;;;;10139918;28;20058;-73
2022/11/03 17:35:39;;;;;;;21.40;19.50;;;;;;;;;;10137463;28;20418;-73
2022/11/03 17:40:36;;;;;;;20.42;18.48;;;;;;;;;;10132228;28;20587;-72
2022/11/03 17:45:33;;;;;;;20.42;18.92;;;;;;;;;;10135323;28;20096;-74
2022/11/03 17:50:29;;;;;;;20.50;18.58;;;;;;;;;;10138582;28;20038;-72
2022/11/03 17:55:26;;;;;;;20.25;18.55;;;;;;;;;;10132698;28;20042;-70
2022/11/03 18:00:23;;;;;;;20.63;18.63;;;;;;;;;;10139208;28;20042;-72
2022/11/03 18:05:23;;;;;;;20.23;18.38;;;;;;;;;;10137987;28;20506;-72
2022/11/03 18:10:21;;;;;;;20.17;18.17;;;;;;;;;;10133424;28;20046;-72
2022/11/03 18:15:18;;;;;;;19.98;18.48;;;;;;;;;;10138521;28;20053;-71
2022/11/03 18:20:17;;;;;;;19.45;17.88;;;;;;;;;;10135282;28;20053;-72
2022/11/03 18:25:17;;;;;;;20.73;18.85;;;;;;;;;;10135728;28;20043;-72
2022/11/03 18:30:17;;;;;;;20.17;18.48;;;;;;;;;;10123073;28;20050;-72
2022/11/03 18:35:19;;;;;;;19.83;18.38;;;;;;;;;;10133696;28;20047;-71
2022/11/03 18:40:19;;;;;;;20.13;18.40;;;;;;;;;;10138877;28;20082;-72
2022/11/03 18:45:16;;;;;;;19.75;18.23;;;;;;;;;;10126692;28;20446;-71
2022/11/03 18:50:14;;;;;;;19.45;17.40;;;;;;;;;;10141372;28;20046;-72
2022/11/03 18:55:11;;;;;;;19.73;17.90;;;;;;;;;;10132009;28;20283;-71
2022/11/03 19:00:15;;;;;;;18.00;16.35;;;;;;;;;;10127633;28;20466;-72
2022/11/03 19:05:12;;;;;;;18.85;17.23;;;;;;;;;;10131441;28;20135;-71
2022/11/03 19:10:11;;;;;;;18.27;16.75;;;;;;;;;;10140067;28;20395;-71
2022/11/03 19:15:16;;;;;;;16.73;15.43;;;;;;;;;;10137212;28;20490;-72
2022/11/03 19:20:12;;;;;;;18.40;16.42;;;;;;;;;;10132821;28;20039;-72
2022/11/03 19:25:09;;;;;;;17.33;15.73;;;;;;;;;;10121040;28;21006;-72
2022/11/03 19:30:05;;;;;;;15.95;14.70;;;;;;;;;;10120848;28;20748;-71
2022/11/03 19:35:04;;;;;;;15.90;14.68;;;;;;;;;;10143165;28;20047;-71
2022/11/03 19:40:01;;;;;;;16.38;13.60;;;;;;;;;;10136531;28;20711;-72
2022/11/03 19:44:58;;;;;;;16.33;14.23;;;;;;;;;;10146021;28;20500;-72
2022/11/03 19:49:55;;;;;;;14.95;13.50;;;;;;;;;;10152302;28;20053;-72
2022/11/03 19:54:51;;;;;;;16.15;14.07;;;;;;;;;;10150881;28;20042;-72
2022/11/03 19:59:48;;;;;;;14.43;13.23;;;;;;;;;;10150876;28;20050;-72
2022/11/03 20:04:46;;;;;;;14.63;13.52;;;;;;;;;;10149786;28;20061;-72
2022/11/03 20:09:42;;;;;;;15.02;13.50;;;;;;;;;;10151651;28;20049;-72
2022/11/03 20:14:39;;;;;;;16.38;14.70;;;;;;;;;;10139978;28;20046;-72
2022/11/03 20:19:35;;;;;;;13.93;12.60;;;;;;;;;;10139585;28;20038;-72
2022/11/03 20:24:32;;;;;;;13.57;12.32;;;;;;;;;;10148630;28;20093;-71
2022/11/03 20:29:28;;;;;;;18.42;14.35;;;;;;;;;;10150430;28;20046;-71
2022/11/03 20:34:30;;;;;;;16.40;14.85;;;;;;;;;;10144976;28;20061;-71
2022/11/03 20:39:26;;;;;;;14.80;13.45;;;;;;;;;;10149844;28;20080;-72
2022/11/03 20:44:23;;;;;;;14.35;13.05;;;;;;;;;;10144744;28;20051;-72
2022/11/03 20:49:20;;;;;;;15.77;13.50;;;;;;;;;;10151342;28;20046;-72
2022/11/03 20:54:17;;;;;;;16.30;14.73;;;;;;;;;;10140579;28;20042;-72
2022/11/03 20:59:20;;;;;;;15.35;13.85;;;;;;;;;;10146070;28;20414;-72
2022/11/03 21:04:17;;;;;;;14.48;13.10;;;;;;;;;;10137870;28;20053;-72
2022/11/03 21:09:16;;;;;;;13.90;12.80;;;;;;;;;;10131506;28;20503;-72
2022/11/03 21:14:12;;;;;;;14.93;13.73;;;;;;;;;;10134296;28;20399;-72
2022/11/03 21:24:34;;;;;;;16.38;14.38;;;;;;;;;;10140789;28;20057;-71
2022/11/03 21:29:31;;;;;;;14.40;13.02;;;;;;;;;;10140142;28;20042;-73
2022/11/03 21:34:47;;;;;;;19.17;15.05;;;;;;;;;;10128355;28;20502;-73
2022/11/03 21:39:43;;;;;;;15.55;14.13;;;;;;;;;;10135423;28;20057;-72
2022/11/03 21:44:39;;;;;;;15.77;14.48;;;;;;;;;;10144378;28;20054;-73
2022/11/03 21:49:42;;;;;;;15.23;13.88;;;;;;;;;;10132245;28;20053;-73
2022/11/03 21:54:38;;;;;;;15.05;13.45;;;;;;;;;;10136160;28;20070;-72
2022/11/03 21:59:35;;;;;;;14.30;12.98;;;;;;;;;;10147103;28;20060;-72
2022/11/03 22:04:31;;;;;;;14.50;13.30;;;;;;;;;;10150034;28;20046;-72
2022/11/03 22:09:28;;;;;;;14.00;12.70;;;;;;;;;;10143998;28;20461;-71
2022/11/03 22:14:25;;;;;;;16.42;14.90;;;;;;;;;;10142160;28;20050;-71
2022/11/03 22:45:57;;;;;;;16.48;15.15;;;;;;;;;;10138659;28;20045;-72
2022/11/03 22:50:56;;;;;;;16.77;15.50;;;;;;;;;;10142201;28;20057;-72
2022/11/03 22:55:52;;;;;;;16.60;15.05;;;;;;;;;;10147043;28;20046;-69
2022/11/03 23:00:48;;;;;;;15.63;14.35;;;;;;;;;;10140172;28;20044;-70
2022/11/03 23:05:44;;;;;;;15.30;14.10;;;;;;;;;;10142039;28;20061;-69
2022/11/03 23:10:41;;;;;;;16.48;15.07;;;;;;;;;;10145349;28;20057;-70
2022/11/03 23:15:42;;;;;;;17.30;15.75;;;;;;;;;;10144612;28;21327;-70
2022/11/03 23:25:53;;;;;;;18.65;16.92;;;;;;;;;;10152938;28;20388;-69
2022/11/03 23:30:49;;;;;;;18.27;16.80;;;;;;;;;;10149514;28;20053;-74
2022/11/03 23:35:45;;;;;;;21.75;19.90;;;;;;;;;;10153287;28;20050;-74
2022/11/03 23:40:42;;;;;;;20.80;19.13;;;;;;;;;;10143087;28;20047;-73
2022/11/03 23:50:53;;;;;;;21.73;20.23;;;;;;;;;;10144177;28;20426;-71
